Time;durP1;ratioP1;P1;durP2;ratioP2;P2;SDS_P1;SDS_P2;PMS_P1;PMS_P2;Temp;Humidity;BMP_temperature;BMP_pressure;BME280_temperature;BME280_humidity;BME280_pressure;Samples;Min_cycle;Max_cycle;Signal;HPM_P1;HPM_P2
2022/05/20 00:00:32;;;;;;;5.20;2.17;;;;;;;;;;5033849;28;20033;-82
2022/05/20 00:02:58;;;;;;;6.70;2.72;;;;;;;;;;5034250;28;20033;-82
2022/05/20 00:05:45;;;;;;;;;;;;;;;;;;;;;
2022/05/20 00:08:11;;;;;;;3.17;1.10;;;;;;;;;;5033981;28;20025;-83
2022/05/20 00:10:37;;;;;;;7.00;2.80;;;;;;;;;;5033962;28;20035;-83
2022/05/20 00:13:04;;;;;;;6.85;1.50;;;;;;;;;;5032857;28;20393;-82
2022/05/20 00:15:31;;;;;;;9.38;3.92;;;;;;;;;;5033765;28;20029;-82
2022/05/20 00:17:57;;;;;;;3.97;1.88;;;;;;;;;;5033915;28;20116;-82
2022/05/20 00:20:32;;;;;;;7.60;3.17;;;;;;;;;;5033422;28;20112;-83
2022/05/20 00:22:58;;;;;;;7.80;2.72;;;;;;;;;;5032452;28;20032;-83
2022/05/20 00:28:20;;;;;;;8.07;3.60;;;;;;;;;;5033800;28;20041;-82
2022/05/20 00:30:46;;;;;;;;;;;;;;;;;;5033904;28;20025;-83
2022/05/20 00:33:13;;;;;;;4.47;1.73;;;;;;;;;;5032389;28;19960;-83
2022/05/20 00:35:39;;;;;;;2.83;1.00;;;;;;;;;;5033606;28;20025;-83
2022/05/20 00:38:08;;;;;;;3.05;1.40;;;;;;;;;;5033016;28;20073;-82
2022/05/20 00:40:34;;;;;;;3.80;1.20;;;;;;;;;;5033362;28;20029;-82
2022/05/20 00:43:16;;;;;;;3.47;1.75;;;;;;;;;;5033161;28;20184;-83
2022/05/20 00:45:46;;;;;;;2.65;1.30;;;;;;;;;;5033194;28;20036;-84
2022/05/20 00:48:22;;;;;;;3.83;1.35;;;;;;;;;;5048867;28;20041;-83
2022/05/20 00:51:02;;;;;;;2.22;1.33;;;;;;;;;;5032282;28;20033;-82
2022/05/20 00:53:33;;;;;;;3.13;1.40;;;;;;;;;;5031749;28;20060;-83
2022/05/20 00:56:02;;;;;;;5.95;2.10;;;;;;;;;;5032100;28;20059;-83
2022/05/20 00:58:30;;;;;;;6.85;2.17;;;;;;;;;;5033002;28;20033;-83
2022/05/20 01:00:59;;;;;;;3.50;1.75;;;;;;;;;;5033089;28;20068;-83
2022/05/20 01:03:26;;;;;;;4.68;1.77;;;;;;;;;;5031537;28;20029;-83
2022/05/20 01:05:56;;;;;;;4.30;1.85;;;;;;;;;;5033074;28;20515;-82
2022/05/20 01:08:35;;;;;;;4.30;1.40;;;;;;;;;;5033897;28;20026;-84
2022/05/20 01:11:01;;;;;;;2.42;1.30;;;;;;;;;;5032842;28;20028;-82
2022/05/20 01:13:28;;;;;;;2.65;1.38;;;;;;;;;;5032880;28;20499;-83
2022/05/20 01:16:02;;;;;;;8.32;2.85;;;;;;;;;;5032959;28;20081;-82
2022/05/20 01:18:29;;;;;;;4.85;1.77;;;;;;;;;;5031410;28;20449;-83
2022/05/20 01:21:01;;;;;;;4.22;2.05;;;;;;;;;;5032526;28;20029;-83
2022/05/20 01:23:28;;;;;;;8.63;2.92;;;;;;;;;;5031439;28;20025;-82
2022/05/20 01:25:56;;;;;;;7.38;2.97;;;;;;;;;;5032644;28;20025;-82
2022/05/20 01:28:23;;;;;;;10.05;3.58;;;;;;;;;;5032736;28;20037;-83
2022/05/20 01:30:59;;;;;;;8.15;3.65;;;;;;;;;;5032575;28;20029;-82
2022/05/20 01:33:31;;;;;;;8.35;3.00;;;;;;;;;;5031332;28;20114;-83
2022/05/20 01:35:58;;;;;;;6.25;2.75;;;;;;;;;;5032585;28;20087;-82
2022/05/20 01:38:27;;;;;;;7.35;3.13;;;;;;;;;;5032486;28;20030;-83
2022/05/20 01:40:55;;;;;;;12.32;3.30;;;;;;;;;;5031207;28;20029;-83
2022/05/20 01:43:34;;;;;;;20.08;6.50;;;;;;;;;;5032423;28;20484;-82
2022/05/20 01:46:19;;;;;;;16.75;6.55;;;;;;;;;;5032508;28;20029;-83
2022/05/20 01:48:45;;;;;;;;;;;;;;;;;;5032908;28;20507;-82
2022/05/20 01:51:13;;;;;;;19.92;7.18;;;;;;;;;;5034915;28;19905;-82
2022/05/20 01:53:43;;;;;;;22.52;9.55;;;;;;;;;;5036537;28;20092;-82
2022/05/20 01:56:29;;;;;;;21.63;8.15;;;;;;;;;;5036300;28;20025;-83
2022/05/20 01:58:58;;;;;;;16.63;6.40;;;;;;;;;;5034982;28;20033;-83
2022/05/20 02:01:31;;;;;;;13.90;5.78;;;;;;;;;;5035194;28;20125;-82
2022/05/20 02:04:08;;;;;;;11.23;4.40;;;;;;;;;;5036358;28;20084;-83
2022/05/20 02:06:38;;;;;;;8.40;2.78;;;;;;;;;;5034949;28;20026;-83
2022/05/20 02:09:13;;;;;;;12.10;5.13;;;;;;;;;;5035092;28;20036;-83
2022/05/20 02:11:50;;;;;;;11.15;4.07;;;;;;;;;;5036033;28;20396;-83
2022/05/20 02:14:30;;;;;;;11.10;3.30;;;;;;;;;;5036061;28;20021;-83
2022/05/20 02:17:03;;;;;;;8.40;3.85;;;;;;;;;;5036604;28;20101;-83
2022/05/20 02:19:29;;;;;;;5.07;1.90;;;;;;;;;;5035298;28;20030;-83
2022/05/20 02:21:59;;;;;;;4.18;1.83;;;;;;;;;;5034822;28;20026;-82
2022/05/20 02:24:28;;;;;;;8.10;3.00;;;;;;;;;;5036043;28;20491;-82
2022/05/20 02:27:06;;;;;;;4.55;1.90;;;;;;;;;;5034981;28;20037;-83
2022/05/20 02:29:36;;;;;;;7.47;3.22;;;;;;;;;;5035873;28;20030;-83
2022/05/20 02:32:05;;;;;;;9.45;3.20;;;;;;;;;;5035765;28;20040;-83
2022/05/20 02:34:34;;;;;;;6.03;2.55;;;;;;;;;;5035870;28;20468;-83
2022/05/20 02:37:01;;;;;;;7.25;3.03;;;;;;;;;;5034476;28;20116;-82
2022/05/20 02:39:27;;;;;;;7.40;2.80;;;;;;;;;;5035688;28;20029;-83
2022/05/20 02:41:54;;;;;;;7.93;3.15;;;;;;;;;;5035318;28;20037;-82
2022/05/20 02:44:20;;;;;;;12.15;4.50;;;;;;;;;;5034493;28;20025;-82
2022/05/20 02:46:52;;;;;;;9.48;3.70;;;;;;;;;;5035402;28;20025;-82
2022/05/20 02:49:20;;;;;;;8.20;3.65;;;;;;;;;;5035625;28;20108;-83
2022/05/20 02:51:47;;;;;;;8.95;3.33;;;;;;;;;;5035335;28;20112;-82
2022/05/20 02:54:15;;;;;;;9.52;3.03;;;;;;;;;;5034541;28;20439;-83
2022/05/20 02:56:41;;;;;;;5.57;2.70;;;;;;;;;;5035272;28;20028;-82
2022/05/20 03:17:05;;;;;;;18.60;9.23;;;;;;;;;;4935469;28;20027;-82
2022/05/20 03:19:31;;;;;;;9.13;4.82;;;;;;;;;;4954709;28;20035;-83
2022/05/20 03:21:58;;;;;;;12.90;5.30;;;;;;;;;;4991102;28;20041;-82
2022/05/20 03:24:24;;;;;;;9.75;3.60;;;;;;;;;;5012883;28;20033;-83
2022/05/20 03:26:57;;;;;;;6.10;2.45;;;;;;;;;;5014614;28;20034;-83
2022/05/20 03:36:31;;;;;;;;;;;;;;;;;;;;;
2022/05/20 03:39:05;;;;;;;13.52;5.78;;;;;;;;;;5005532;28;20033;-84
2022/05/20 03:41:31;;;;;;;9.13;4.10;;;;;;;;;;5023794;28;20124;-82
2022/05/20 03:43:57;;;;;;;12.27;4.82;;;;;;;;;;5022792;28;20045;-84
2022/05/20 03:46:23;;;;;;;8.77;3.80;;;;;;;;;;5014891;28;20057;-83
2022/05/20 03:48:54;;;;;;;9.52;3.95;;;;;;;;;;5013429;28;20798;-83
2022/05/20 03:51:20;;;;;;;7.68;3.17;;;;;;;;;;5013283;28;20397;-83
2022/05/20 03:53:49;;;;;;;6.60;3.25;;;;;;;;;;5014805;28;20033;-84
2022/05/20 03:56:22;;;;;;;9.02;3.40;;;;;;;;;;5013106;28;20083;-83
2022/05/20 03:58:48;;;;;;;11.32;4.63;;;;;;;;;;5014414;28;20444;-83
2022/05/20 04:03:59;;;;;;;5.25;3.10;;;;;;;;;;5014316;28;20077;-83
2022/05/20 04:06:27;;;;;;;10.48;3.88;;;;;;;;;;5014573;28;20551;-86
2022/05/20 04:08:54;;;;;;;9.15;3.50;;;;;;;;;;5012844;28;20065;-85
2022/05/20 04:11:23;;;;;;;12.48;5.03;;;;;;;;;;5013366;28;20041;-84
2022/05/20 04:14:01;;;;;;;7.22;4.00;;;;;;;;;;5013135;28;20029;-85
2022/05/20 04:16:27;;;;;;;11.18;3.78;;;;;;;;;;5014465;28;20026;-84
2022/05/20 04:19:15;;;;;;;8.65;3.53;;;;;;;;;;5014164;28;20022;-84
2022/05/20 04:31:42;;;;;;;13.68;5.47;;;;;;;;;;4877913;29;20029;-87
2022/05/20 04:34:17;;;;;;;13.18;5.07;;;;;;;;;;4914791;29;20036;-83
2022/05/20 04:36:46;;;;;;;12.57;5.75;;;;;;;;;;4915594;29;20068;-87
2022/05/20 04:39:21;;;;;;;13.45;5.72;;;;;;;;;;4915732;29;20039;-85
2022/05/20 04:47:23;;;;;;;7.82;3.35;;;;;;;;;;4992694;28;20424;-85
2022/05/20 04:49:49;;;;;;;11.35;4.70;;;;;;;;;;5027718;28;20053;-87
2022/05/20 04:52:15;;;;;;;5.68;2.90;;;;;;;;;;5032408;28;20048;-87
2022/05/20 04:54:54;;;;;;;12.07;3.97;;;;;;;;;;5032899;28;20399;-84
2022/05/20 04:57:20;;;;;;;11.45;4.20;;;;;;;;;;5034418;28;20030;-84
2022/05/20 05:02:45;;;;;;;8.07;4.65;;;;;;;;;;5034594;28;20053;-86
2022/05/20 05:05:24;;;;;;;6.10;3.28;;;;;;;;;;5035432;28;20021;-83
2022/05/20 05:07:58;;;;;;;13.90;5.88;;;;;;;;;;5034337;28;20024;-88
2022/05/20 05:10:31;;;;;;;8.18;4.47;;;;;;;;;;5033629;28;20439;-86
2022/05/20 05:12:57;;;;;;;16.63;5.30;;;;;;;;;;5029079;28;20029;-86
2022/05/20 05:15:34;;;;;;;;;;;;;;;;;;;;;
2022/05/20 05:21:17;;;;;;;11.43;4.20;;;;;;;;;;5018790;28;20045;-84
2022/05/20 05:23:47;;;;;;;6.32;3.85;;;;;;;;;;5030784;28;20041;-85
2022/05/20 05:26:23;;;;;;;9.35;4.97;;;;;;;;;;5033216;28;20139;-88
2022/05/20 05:29:00;;;;;;;11.90;5.30;;;;;;;;;;5011353;28;20041;-88
2022/05/20 05:34:56;;;;;;;;;;;;;;;;;;;;;
2022/05/20 05:37:43;;;;;;;20.00;13.40;;;;;;;;;;5008547;28;20050;-86
2022/05/20 05:40:13;;;;;;;27.73;15.52;;;;;;;;;;4994095;28;20037;-89
2022/05/20 05:43:06;;;;;;;28.40;15.43;;;;;;;;;;5009439;28;20064;-87
2022/05/20 05:48:21;;;;;;;24.05;11.63;;;;;;;;;;4979566;28;20076;-83
2022/05/20 05:50:50;;;;;;;16.98;9.10;;;;;;;;;;5008970;28;20033;-84
2022/05/20 05:53:22;;;;;;;9.65;5.57;;;;;;;;;;5009330;28;20482;-82
2022/05/20 05:55:52;;;;;;;5.00;3.22;;;;;;;;;;5008653;28;20485;-83
2022/05/20 05:58:32;;;;;;;5.00;2.72;;;;;;;;;;5008299;28;20614;-82
2022/05/20 06:00:59;;;;;;;7.50;2.60;;;;;;;;;;5030648;28;20045;-81
2022/05/20 06:03:25;;;;;;;9.63;3.28;;;;;;;;;;5031305;28;20483;-85
2022/05/20 06:05:51;;;;;;;6.55;3.13;;;;;;;;;;5030451;28;20052;-81
2022/05/20 06:08:17;;;;;;;5.72;2.95;;;;;;;;;;5031154;28;20021;-83
2022/05/20 06:10:44;;;;;;;14.90;4.60;;;;;;;;;;5029598;28;20038;-81
2022/05/20 06:13:10;;;;;;;10.80;5.30;;;;;;;;;;5030762;28;20025;-84
2022/05/20 06:15:41;;;;;;;39.50;16.80;;;;;;;;;;5030716;28;20029;-82
2022/05/20 06:18:07;;;;;;;25.60;11.98;;;;;;;;;;5031934;28;20034;-80
2022/05/20 06:20:33;;;;;;;23.10;8.48;;;;;;;;;;5029507;28;20853;-82
2022/05/20 06:23:01;;;;;;;18.48;7.75;;;;;;;;;;5028262;28;20063;-81
2022/05/20 06:25:37;;;;;;;;;;;;;;;;;;;;;
2022/05/20 06:28:05;;;;;;;27.52;12.43;;;;;;;;;;5029692;28;20510;-81
2022/05/20 06:30:32;;;;;;;90.40;37.30;;;;;;;;;;5030967;28;20373;-81
2022/05/20 06:32:58;;;;;;;128.75;51.33;;;;;;;;;;5030448;28;20021;-82
2022/05/20 06:40:55;;;;;;;13.68;6.75;;;;;;;;;;5035032;28;20052;-80
2022/05/20 06:43:22;;;;;;;9.63;4.78;;;;;;;;;;5033786;28;20133;-82
2022/05/20 06:45:52;;;;;;;5.68;2.83;;;;;;;;;;5034483;28;20079;-85
2022/05/20 06:48:21;;;;;;;13.75;4.88;;;;;;;;;;5034314;28;20108;-85
2022/05/20 06:50:50;;;;;;;24.67;18.63;;;;;;;;;;5032736;28;20026;-83
2022/05/20 06:53:19;;;;;;;13.45;7.68;;;;;;;;;;5034880;28;20105;-84
2022/05/20 06:55:45;;;;;;;10.05;4.22;;;;;;;;;;5034018;28;20028;-81
2022/05/20 06:58:11;;;;;;;11.75;5.60;;;;;;;;;;5034886;28;20079;-81
2022/05/20 07:00:37;;;;;;;23.38;8.25;;;;;;;;;;5033194;28;20079;-83
2022/05/20 07:03:04;;;;;;;20.35;7.78;;;;;;;;;;5033493;28;20025;-82
2022/05/20 07:05:49;;;;;;;;;;;;;;;;;;;;;
2022/05/20 07:08:19;;;;;;;19.35;12.48;;;;;;;;;;5034363;28;20021;-82
2022/05/20 07:10:54;;;;;;;19.75;7.50;;;;;;;;;;5034132;28;20163;-84
2022/05/20 07:13:28;;;;;;;31.55;11.40;;;;;;;;;;5034234;28;20045;-83
2022/05/20 07:15:57;;;;;;;13.10;5.32;;;;;;;;;;5032469;28;20034;-87
2022/05/20 07:18:24;;;;;;;7.90;3.75;;;;;;;;;;5032882;28;20088;-86
2022/05/20 07:20:50;;;;;;;14.85;5.25;;;;;;;;;;5033830;28;20030;-84
2022/05/20 07:23:16;;;;;;;42.28;15.57;;;;;;;;;;5035026;28;20018;-85
2022/05/20 07:25:42;;;;;;;6.25;2.85;;;;;;;;;;5033974;28;20075;-79
2022/05/20 07:28:09;;;;;;;10.75;4.55;;;;;;;;;;5033519;28;20026;-78
2022/05/20 07:30:35;;;;;;;13.63;9.45;;;;;;;;;;5032001;28;20701;-79
2022/05/20 07:33:02;;;;;;;15.55;7.55;;;;;;;;;;5031565;28;20030;-80
2022/05/20 07:35:28;;;;;;;8.63;5.22;;;;;;;;;;5033710;28;20390;-80
2022/05/20 07:37:54;;;;;;;10.50;5.55;;;;;;;;;;5033079;28;20026;-80
2022/05/20 07:40:22;;;;;;;10.93;4.93;;;;;;;;;;5032957;28;20526;-78
2022/05/20 07:42:56;;;;;;;12.02;5.80;;;;;;;;;;5032149;28;20050;-83
2022/05/20 07:45:25;;;;;;;12.27;5.85;;;;;;;;;;5032790;28;20025;-83
2022/05/20 07:47:51;;;;;;;13.95;5.45;;;;;;;;;;5047058;28;20079;-80
2022/05/20 07:50:17;;;;;;;18.63;7.85;;;;;;;;;;5029843;28;20029;-81
2022/05/20 07:55:37;;;;;;;6.13;2.90;;;;;;;;;;5013787;28;20053;-84
2022/05/20 07:58:06;;;;;;;13.15;4.47;;;;;;;;;;5011778;28;20037;-82
2022/05/20 08:00:32;;;;;;;8.32;3.50;;;;;;;;;;5016308;28;20038;-83
2022/05/20 08:03:01;;;;;;;7.80;2.30;;;;;;;;;;5032396;28;20030;-80
2022/05/20 08:05:30;;;;;;;7.13;3.10;;;;;;;;;;5031666;28;20025;-82
2022/05/20 08:08:01;;;;;;;6.22;2.90;;;;;;;;;;5031093;28;20112;-81
2022/05/20 08:10:29;;;;;;;27.15;13.57;;;;;;;;;;5033467;28;20036;-82
2022/05/20 08:12:56;;;;;;;30.48;17.30;;;;;;;;;;5030809;28;20419;-81
2022/05/20 08:15:23;;;;;;;255.82;94.13;;;;;;;;;;5033170;28;20048;-83
2022/05/20 08:17:49;;;;;;;17.85;8.55;;;;;;;;;;5032223;28;20053;-84
2022/05/20 08:20:28;;;;;;;17.15;6.60;;;;;;;;;;5034825;28;20051;-85
2022/05/20 08:23:00;;;;;;;12.10;4.00;;;;;;;;;;5031251;28;20034;-82
2022/05/20 08:25:29;;;;;;;18.67;6.47;;;;;;;;;;5032778;28;20022;-86
2022/05/20 08:27:55;;;;;;;7.68;3.00;;;;;;;;;;5031557;28;20030;-81
2022/05/20 08:30:25;;;;;;;7.70;4.03;;;;;;;;;;5030905;28;20037;-84
2022/05/20 08:32:53;;;;;;;6.38;2.92;;;;;;;;;;5033056;28;20100;-82
2022/05/20 08:35:21;;;;;;;5.32;2.10;;;;;;;;;;5032222;28;20037;-83
2022/05/20 08:37:48;;;;;;;7.03;2.50;;;;;;;;;;5031888;28;20029;-85
2022/05/20 08:40:18;;;;;;;100.47;35.95;;;;;;;;;;5030294;28;20076;-82
2022/05/20 08:42:47;;;;;;;63.83;23.40;;;;;;;;;;5031586;28;20057;-84
2022/05/20 08:45:14;;;;;;;43.10;15.63;;;;;;;;;;5032084;28;20029;-83
2022/05/20 08:47:59;;;;;;;26.05;9.15;;;;;;;;;;5031892;28;20375;-83
2022/05/20 08:50:29;;;;;;;14.00;4.72;;;;;;;;;;5032037;28;20079;-86
2022/05/20 08:52:59;;;;;;;8.13;2.97;;;;;;;;;;5030979;28;20026;-82
2022/05/20 08:55:28;;;;;;;3.75;1.40;;;;;;;;;;5032500;28;20029;-81
2022/05/20 08:57:59;;;;;;;3.08;1.30;;;;;;;;;;5031105;28;20056;-79
2022/05/20 09:00:28;;;;;;;3.50;0.98;;;;;;;;;;5030804;28;20109;-81
2022/05/20 09:02:54;;;;;;;21.38;8.50;;;;;;;;;;5031079;28;20546;-78
2022/05/20 09:05:20;;;;;;;32.13;10.50;;;;;;;;;;5030829;28;20124;-82
2022/05/20 09:08:07;;;;;;;64.50;22.98;;;;;;;;;;5031472;28;20021;-81
2022/05/20 09:10:53;;;;;;;75.32;26.58;;;;;;;;;;5031506;28;20103;-82
2022/05/20 09:15:43;;;;;;;15.18;4.70;;;;;;;;;;5031352;28;20037;-82
2022/05/20 09:16:20;;;;;;;57.20;19.95;;;;;;;;;;5031793;28;20123;-80
2022/05/20 09:18:47;;;;;;;40.08;12.98;;;;;;;;;;5031630;28;20026;-81
2022/05/20 09:21:26;;;;;;;73.93;28.08;;;;;;;;;;5031650;28;20018;-84
2022/05/20 09:23:57;;;;;;;24.65;8.85;;;;;;;;;;5033331;28;20124;-74
2022/05/20 09:26:25;;;;;;;51.03;16.95;;;;;;;;;;5029645;28;20021;-83
2022/05/20 09:29:12;;;;;;;48.38;18.77;;;;;;;;;;5032293;28;20484;-84
2022/05/20 09:32:00;;;;;;;42.28;16.05;;;;;;;;;;5029665;28;20017;-82
2022/05/20 09:34:26;;;;;;;10.25;4.60;;;;;;;;;;5029953;28;20506;-85
2022/05/20 09:37:05;;;;;;;10.43;4.85;;;;;;;;;;5031527;28;20045;-82
2022/05/20 09:39:45;;;;;;;26.92;9.82;;;;;;;;;;5024592;28;20025;-90
2022/05/20 09:42:16;;;;;;;27.75;9.52;;;;;;;;;;5031522;28;20439;-85
2022/05/20 09:44:48;;;;;;;10.27;4.07;;;;;;;;;;5023105;28;20455;-85
2022/05/20 09:47:20;;;;;;;26.45;10.05;;;;;;;;;;5029973;28;20442;-82
2022/05/20 09:49:52;;;;;;;17.52;5.93;;;;;;;;;;5031275;28;20044;-81
2022/05/20 09:52:24;;;;;;;19.77;8.05;;;;;;;;;;5031027;28;20017;-81
2022/05/20 09:55:01;;;;;;;8.63;3.67;;;;;;;;;;5028755;28;20095;-82
2022/05/20 09:57:36;;;;;;;8.73;2.85;;;;;;;;;;5029880;28;20036;-79
2022/05/20 10:00:04;;;;;;;7.82;3.50;;;;;;;;;;5031039;28;20045;-78
2022/05/20 10:02:30;;;;;;;5.80;1.27;;;;;;;;;;5029518;28;20032;-80
2022/05/20 10:05:09;;;;;;;6.38;1.88;;;;;;;;;;5025291;28;20049;-82
2022/05/20 10:07:47;;;;;;;7.63;3.28;;;;;;;;;;5045584;28;20021;-81
2022/05/20 10:10:33;;;;;;;14.98;6.28;;;;;;;;;;5031672;28;20065;-81
2022/05/20 10:13:08;;;;;;;12.95;5.30;;;;;;;;;;5031484;28;20037;-85
2022/05/20 10:16:09;;;;;;;10.27;3.97;;;;;;;;;;5033795;28;20427;-86
2022/05/20 10:22:12;;;;;;;7.45;2.45;;;;;;;;;;5009161;28;20095;-86
2022/05/20 10:25:17;;;;;;;10.32;9.20;;;;;;;;;;5033497;28;20108;-84
2022/05/20 10:37:01;;;;;;;7.50;4.00;;;;;;;;;;4995897;28;20116;-85
2022/05/20 10:39:45;;;;;;;4.72;2.45;;;;;;;;;;5019688;28;20436;-84
2022/05/20 10:42:17;;;;;;;6.10;2.33;;;;;;;;;;5027247;28;20053;-87
2022/05/20 10:51:04;;;;;;;9.02;3.88;;;;;;;;;;5020084;28;20056;-82
2022/05/20 10:53:31;;;;;;;23.90;10.98;;;;;;;;;;5031920;28;20477;-72
2022/05/20 10:56:16;;;;;;;132.15;54.92;;;;;;;;;;5031887;28;20065;-81
2022/05/20 10:58:43;;;;;;;24.23;10.38;;;;;;;;;;5034174;28;20091;-81
2022/05/20 11:01:18;;;;;;;44.58;21.00;;;;;;;;;;5032833;28;20128;-83
2022/05/20 11:03:57;;;;;;;77.93;33.35;;;;;;;;;;5033951;28;20021;-84
2022/05/20 11:06:35;;;;;;;21.80;9.13;;;;;;;;;;5022402;28;20040;-82
2022/05/20 11:09:04;;;;;;;70.43;30.73;;;;;;;;;;5032878;28;20029;-80
2022/05/20 11:12:05;;;;;;;37.40;16.30;;;;;;;;;;5029366;28;20362;-87
2022/05/20 11:14:43;;;;;;;58.35;26.20;;;;;;;;;;5027151;28;20061;-83
2022/05/20 11:17:24;;;;;;;42.72;18.50;;;;;;;;;;5014108;28;20092;-80
2022/05/20 11:19:56;;;;;;;175.32;67.22;;;;;;;;;;5013826;28;20442;-81
2022/05/20 11:22:44;;;;;;;47.33;28.70;;;;;;;;;;5028952;28;20369;-81
2022/05/20 11:25:10;;;;;;;31.08;11.65;;;;;;;;;;5013902;28;20021;-81
2022/05/20 11:27:44;;;;;;;74.68;29.95;;;;;;;;;;5013855;28;20034;-80
2022/05/20 11:30:13;;;;;;;110.55;44.22;;;;;;;;;;5025554;28;20116;-80
2022/05/20 11:32:58;;;;;;;42.50;18.00;;;;;;;;;;5028080;28;20040;-81
2022/05/20 11:35:25;;;;;;;122.55;50.03;;;;;;;;;;5033659;28;20029;-80
2022/05/20 11:37:57;;;;;;;97.90;39.33;;;;;;;;;;5033065;28;20532;-80
2022/05/20 11:40:42;;;;;;;92.82;35.35;;;;;;;;;;5032142;28;20044;-79
2022/05/20 11:43:29;;;;;;;89.40;34.67;;;;;;;;;;5018394;28;20140;-79
2022/05/20 11:46:04;;;;;;;46.17;18.63;;;;;;;;;;5017965;28;20028;-78
2022/05/20 11:48:48;;;;;;;35.50;15.10;;;;;;;;;;5020993;28;20041;-82
2022/05/20 11:51:14;;;;;;;4.80;1.52;;;;;;;;;;5027641;28;20067;-80
2022/05/20 11:53:50;;;;;;;19.92;7.85;;;;;;;;;;5022189;28;20440;-80
2022/05/20 11:56:28;;;;;;;3.95;1.73;;;;;;;;;;5029540;28;20021;-80
2022/05/20 11:59:15;;;;;;;3.55;0.98;;;;;;;;;;5026318;28;20025;-78
2022/05/20 12:01:45;;;;;;;16.83;7.40;;;;;;;;;;5022526;28;20026;-85
2022/05/20 12:04:18;;;;;;;15.55;5.88;;;;;;;;;;5023836;28;20397;-81
2022/05/20 12:06:47;;;;;;;3.65;0.73;;;;;;;;;;5033224;28;20025;-82
2022/05/20 12:09:25;;;;;;;3.30;1.20;;;;;;;;;;5030046;28;20043;-80
2022/05/20 12:12:11;;;;;;;6.32;2.15;;;;;;;;;;5033918;28;20053;-84
2022/05/20 12:14:56;;;;;;;7.50;2.03;;;;;;;;;;5032902;28;20022;-81
2022/05/20 12:17:30;;;;;;;3.25;1.23;;;;;;;;;;5026463;28;20026;-81
2022/05/20 12:25:45;;;;;;;3.53;1.83;;;;;;;;;;5033983;28;20035;-82
2022/05/20 12:28:41;;;;;;;2.03;0.70;;;;;;;;;;5033939;28;20093;-78
2022/05/20 12:31:11;;;;;;;1.38;0.60;;;;;;;;;;5031545;28;20486;-81
2022/05/20 12:33:56;;;;;;;1.63;0.60;;;;;;;;;;5031518;28;20037;-83
2022/05/20 12:36:28;;;;;;;2.25;0.88;;;;;;;;;;5031287;28;20044;-81
2022/05/20 12:39:10;;;;;;;2.63;0.95;;;;;;;;;;5031503;28;20041;-80
2022/05/20 12:41:43;;;;;;;3.03;1.25;;;;;;;;;;5026620;28;20018;-82
2022/05/20 12:44:19;;;;;;;1.17;0.65;;;;;;;;;;5014940;28;20053;-80
2022/05/20 12:46:45;;;;;;;11.55;5.07;;;;;;;;;;5028810;28;20037;-77
2022/05/20 12:49:12;;;;;;;2.05;0.50;;;;;;;;;;5030653;28;20026;-80
2022/05/20 12:51:44;;;;;;;2.50;0.80;;;;;;;;;;5030236;28;20033;-78
2022/05/20 12:54:26;;;;;;;2.33;0.60;;;;;;;;;;5030111;28;20036;-82
2022/05/20 12:57:03;;;;;;;1.15;0.52;;;;;;;;;;5031693;28;20116;-87
2022/05/20 12:59:30;;;;;;;2.63;0.65;;;;;;;;;;5033047;28;20025;-86
2022/05/20 13:02:00;;;;;;;1.00;0.57;;;;;;;;;;5032859;28;20544;-78
2022/05/20 13:04:28;;;;;;;3.30;0.90;;;;;;;;;;5032542;28;20119;-75
2022/05/20 13:06:55;;;;;;;1.85;0.50;;;;;;;;;;5033874;28;20606;-79
2022/05/20 13:09:25;;;;;;;0.85;0.50;;;;;;;;;;5032530;28;20456;-80
2022/05/20 13:11:52;;;;;;;5.47;0.93;;;;;;;;;;5033029;28;20460;-81
2022/05/20 13:14:20;;;;;;;0.82;0.63;;;;;;;;;;5033140;28;20042;-77
2022/05/20 13:16:54;;;;;;;2.17;0.80;;;;;;;;;;5032600;28;20021;-75
2022/05/20 13:19:26;;;;;;;1.95;0.90;;;;;;;;;;5032258;28;20026;-80
2022/05/20 13:21:54;;;;;;;1.60;0.80;;;;;;;;;;5033008;28;20025;-79
2022/05/20 13:24:25;;;;;;;1.52;0.50;;;;;;;;;;5031554;28;20028;-82
2022/05/20 13:27:02;;;;;;;4.85;1.20;;;;;;;;;;5028824;28;20104;-85
2022/05/20 13:29:28;;;;;;;1.88;0.70;;;;;;;;;;5032523;28;20473;-81
2022/05/20 13:32:21;;;;;;;1.67;0.70;;;;;;;;;;5029466;28;20440;-83
2022/05/20 13:34:49;;;;;;;1.75;0.63;;;;;;;;;;5032612;28;20033;-76
2022/05/20 13:37:16;;;;;;;2.03;0.85;;;;;;;;;;5032578;28;20546;-79
2022/05/20 13:39:44;;;;;;;1.73;0.90;;;;;;;;;;5032132;28;20383;-82
2022/05/20 13:42:12;;;;;;;2.20;0.90;;;;;;;;;;5032770;28;20021;-81
2022/05/20 13:44:44;;;;;;;3.85;0.98;;;;;;;;;;5032469;28;20096;-82
2022/05/20 13:49:58;;;;;;;5.07;1.10;;;;;;;;;;5032844;28;20056;-81
2022/05/20 13:52:25;;;;;;;2.03;0.80;;;;;;;;;;5032402;28;20025;-82
2022/05/20 13:54:53;;;;;;;1.35;0.60;;;;;;;;;;5032637;28;20029;-81
2022/05/20 13:57:37;;;;;;;3.65;0.68;;;;;;;;;;5033368;28;20033;-82
2022/05/20 14:00:38;;;;;;;1.42;0.75;;;;;;;;;;5031867;28;20041;-82
2022/05/20 14:03:14;;;;;;;2.25;0.50;;;;;;;;;;5000394;28;20026;-82
2022/05/20 14:05:49;;;;;;;1.50;0.77;;;;;;;;;;5032967;28;20045;-82
2022/05/20 14:08:41;;;;;;;1.63;0.60;;;;;;;;;;5031649;28;20075;-82
2022/05/20 14:11:27;;;;;;;2.40;0.73;;;;;;;;;;5024768;28;20037;-81
2022/05/20 14:13:59;;;;;;;2.63;0.82;;;;;;;;;;5030072;28;20026;-82
2022/05/20 14:16:31;;;;;;;2.15;0.57;;;;;;;;;;5020652;28;20117;-83
2022/05/20 14:19:16;;;;;;;2.45;0.80;;;;;;;;;;5027902;28;20029;-79
2022/05/20 14:21:43;;;;;;;1.60;0.70;;;;;;;;;;5012898;28;20105;-80
2022/05/20 14:24:16;;;;;;;2.38;0.70;;;;;;;;;;5012578;28;20041;-79
2022/05/20 14:26:49;;;;;;;3.45;0.82;;;;;;;;;;5025315;28;20025;-82
2022/05/20 14:29:20;;;;;;;3.22;0.50;;;;;;;;;;5030306;28;20036;-81
2022/05/20 14:31:55;;;;;;;1.33;0.70;;;;;;;;;;5032590;28;20026;-81
2022/05/20 14:34:27;;;;;;;1.30;0.65;;;;;;;;;;5030819;28;20030;-81
2022/05/20 14:36:55;;;;;;;1.58;0.80;;;;;;;;;;5031269;28;20076;-80
2022/05/20 14:39:24;;;;;;;2.08;0.90;;;;;;;;;;5032749;28;20029;-81
2022/05/20 14:42:11;;;;;;;1.35;1.05;;;;;;;;;;5032637;28;20022;-81
2022/05/20 14:44:46;;;;;;;1.17;0.70;;;;;;;;;;5032409;28;20099;-82
2022/05/20 14:47:14;;;;;;;5.00;1.35;;;;;;;;;;5032861;28;20022;-79
2022/05/20 14:50:02;;;;;;;3.50;0.80;;;;;;;;;;5032324;28;20022;-83
2022/05/20 14:52:33;;;;;;;5.05;2.70;;;;;;;;;;5032091;28;20028;-82
2022/05/20 14:55:02;;;;;;;2.35;1.27;;;;;;;;;;5019432;28;20018;-82
2022/05/20 14:57:29;;;;;;;2.47;0.73;;;;;;;;;;5012684;28;20049;-82
2022/05/20 15:00:16;;;;;;;2.10;0.63;;;;;;;;;;5015873;28;20030;-83
2022/05/20 15:02:42;;;;;;;2.95;0.63;;;;;;;;;;5014546;28;20025;-83
2022/05/20 15:05:11;;;;;;;2.60;1.10;;;;;;;;;;5016011;28;20080;-82
2022/05/20 15:07:45;;;;;;;4.68;0.82;;;;;;;;;;5014765;28;20112;-81
2022/05/20 15:10:16;;;;;;;2.30;0.85;;;;;;;;;;5015817;28;20762;-81
2022/05/20 15:12:42;;;;;;;3.33;0.82;;;;;;;;;;5015954;28;20033;-82
2022/05/20 15:15:09;;;;;;;2.45;0.70;;;;;;;;;;5016197;28;20076;-82
2022/05/20 15:17:38;;;;;;;4.25;1.10;;;;;;;;;;5015261;28;20057;-83
2022/05/20 15:20:04;;;;;;;1.75;0.70;;;;;;;;;;5015262;28;20022;-82
2022/05/20 15:22:31;;;;;;;2.95;0.70;;;;;;;;;;5015204;28;20022;-84
2022/05/20 15:24:57;;;;;;;1.80;0.80;;;;;;;;;;5015670;28;20485;-80
2022/05/20 15:27:24;;;;;;;2.97;0.90;;;;;;;;;;5015532;28;20065;-79
2022/05/20 15:29:55;;;;;;;5.55;1.02;;;;;;;;;;5015142;28;20026;-81
2022/05/20 15:35:06;;;;;;;1.58;0.80;;;;;;;;;;5015121;28;20076;-82
2022/05/20 15:37:33;;;;;;;2.38;0.70;;;;;;;;;;5015027;28;20030;-82
2022/05/20 15:40:06;;;;;;;3.42;1.00;;;;;;;;;;5015153;28;20029;-81
2022/05/20 15:42:32;;;;;;;3.67;0.70;;;;;;;;;;5015033;28;20046;-80
2022/05/20 15:44:58;;;;;;;4.57;1.50;;;;;;;;;;5015471;28;20026;-78
2022/05/20 15:47:25;;;;;;;3.03;0.90;;;;;;;;;;5016520;28;20533;-84
2022/05/20 15:49:54;;;;;;;3.30;0.85;;;;;;;;;;5016721;28;20108;-88
2022/05/20 15:52:23;;;;;;;5.40;1.00;;;;;;;;;;5018055;28;20468;-82
2022/05/20 15:54:52;;;;;;;2.95;0.90;;;;;;;;;;5014716;28;20030;-83
2022/05/20 15:57:19;;;;;;;3.30;0.80;;;;;;;;;;5013886;28;20052;-81
2022/05/20 15:59:47;;;;;;;2.38;0.80;;;;;;;;;;5014618;28;20026;-82
2022/05/20 16:02:13;;;;;;;2.25;0.80;;;;;;;;;;5013214;28;20026;-80
2022/05/20 16:04:40;;;;;;;3.05;0.70;;;;;;;;;;5014606;28;20156;-82
2022/05/20 16:07:07;;;;;;;1.77;0.93;;;;;;;;;;5014571;28;20046;-81
2022/05/20 16:09:33;;;;;;;3.45;0.98;;;;;;;;;;5013592;28;20113;-81
2022/05/20 16:11:59;;;;;;;1.98;0.80;;;;;;;;;;5016922;28;20018;-82
2022/05/20 16:14:25;;;;;;;2.95;0.65;;;;;;;;;;5014484;28;20041;-83
2022/05/20 16:16:51;;;;;;;1.67;1.00;;;;;;;;;;5014182;28;20052;-82
2022/05/20 16:19:18;;;;;;;4.18;0.93;;;;;;;;;;5015119;28;20026;-83
2022/05/20 16:21:45;;;;;;;4.65;1.17;;;;;;;;;;5014373;28;20101;-81
2022/05/20 16:24:11;;;;;;;2.50;0.90;;;;;;;;;;5014075;28;20473;-80
2022/05/20 16:26:41;;;;;;;3.33;0.90;;;;;;;;;;5014292;28;20034;-85
2022/05/20 16:29:08;;;;;;;3.20;1.13;;;;;;;;;;5022469;28;20021;-78
2022/05/20 16:31:37;;;;;;;2.03;0.90;;;;;;;;;;5028705;28;20024;-80
2022/05/20 16:34:03;;;;;;;2.88;1.65;;;;;;;;;;5033232;28;20033;-81
2022/05/20 16:36:30;;;;;;;3.85;1.63;;;;;;;;;;5033605;28;20025;-80
2022/05/20 16:38:56;;;;;;;4.55;2.20;;;;;;;;;;5032211;28;20029;-83
2022/05/20 16:41:22;;;;;;;3.70;2.03;;;;;;;;;;5032261;28;20033;-83
2022/05/20 16:43:49;;;;;;;5.93;4.90;;;;;;;;;;5033307;28;20515;-82
2022/05/20 16:46:19;;;;;;;3.95;1.65;;;;;;;;;;5031444;28;20349;-83